sensor_id;sensor_type;location;lat;lon;timestamp;temperature;humidity
2751;DHT22;1383;48.362;10.908;2024-02-23T00:01:08;10.00;69.30
2751;DHT22;1383;48.362;10.908;2024-02-23T00:03:40;9.90;69.40
2751;DHT22;1383;48.362;10.908;2024-02-23T09:30:57;7.50;53.10
2751;DHT22;1383;48.362;10.908;2024-02-23T09:33:24;7.40;53.10
2751;DHT22;1383;48.362;10.908;2024-02-23T09:35:51;7.50;53.40
2751;DHT22;1383;48.362;10.908;2024-02-23T09:38:18;7.60;53.20
2751;DHT22;1383;48.362;10.908;2024-02-23T09:40:46;7.50;53.50
2751;DHT22;1383;48.362;10.908;2024-02-23T09:43:14;7.40;52.10
2751;DHT22;1383;48.362;10.908;2024-02-23T09:45:42;7.50;53.10
2751;DHT22;1383;48.362;10.908;2024-02-23T09:48:11;7.60;53.00
2751;DHT22;1383;48.362;10.908;2024-02-23T09:50:40;7.60;52.40
2751;DHT22;1383;48.362;10.908;2024-02-23T09:53:10;7.60;51.40
2751;DHT22;1383;48.362;10.908;2024-02-23T09:55:38;7.60;51.30
2751;DHT22;1383;48.362;10.908;2024-02-23T09:58:13;7.60;51.00
2751;DHT22;1383;48.362;10.908;2024-02-23T11:10:54;7.80;43.60
2751;DHT22;1383;48.362;10.908;2024-02-23T11:13:39;7.90;42.90
2751;DHT22;1383;48.362;10.908;2024-02-23T11:16:08;7.90;42.70
2751;DHT22;1383;48.362;10.908;2024-02-23T14:46:02;7.40;46.60
2751;DHT22;1383;48.362;10.908;2024-02-23T14:48:47;7.40;46.40
2751;DHT22;1383;48.362;10.908;2024-02-23T15:02:03;7.50;46.30
2751;DHT22;1383;48.362;10.908;2024-02-23T15:19:14;7.10;47.10
2751;DHT22;1383;48.362;10.908;2024-02-23T15:21:41;7.20;47.30
2751;DHT22;1383;48.362;10.908;2024-02-23T15:24:09;7.20;47.50
2751;DHT22;1383;48.362;10.908;2024-02-23T15:26:36;7.20;47.20
2751;DHT22;1383;48.362;10.908;2024-02-23T15:47:54;7.10;44.20
2751;DHT22;1383;48.362;10.908;2024-02-23T17:36:31;5.70;45.00
2751;DHT22;1383;48.362;10.908;2024-02-23T17:38:58;5.70;45.30
2751;DHT22;1383;48.362;10.908;2024-02-23T17:41:47;5.60;45.30
2751;DHT22;1383;48.362;10.908;2024-02-23T17:44:20;5.70;45.30
2751;DHT22;1383;48.362;10.908;2024-02-23T17:46:47;5.60;45.10
2751;DHT22;1383;48.362;10.908;2024-02-23T17:49:15;5.60;45.50
2751;DHT22;1383;48.362;10.908;2024-02-23T17:51:42;5.70;45.30
2751;DHT22;1383;48.362;10.908;2024-02-23T17:54:09;5.80;45.50
2751;DHT22;1383;48.362;10.908;2024-02-23T17:56:36;5.80;45.10
2751;DHT22;1383;48.362;10.908;2024-02-23T17:59:03;5.90;45.10
2751;DHT22;1383;48.362;10.908;2024-02-23T18:01:31;5.90;44.90
2751;DHT22;1383;48.362;10.908;2024-02-23T18:04:04;5.80;44.80
2751;DHT22;1383;48.362;10.908;2024-02-23T18:06:31;5.80;45.00
2751;DHT22;1383;48.362;10.908;2024-02-23T18:09:30;5.80;45.10
2751;DHT22;1383;48.362;10.908;2024-02-23T18:12:00;5.70;45.20
2751;DHT22;1383;48.362;10.908;2024-02-23T18:14:27;5.70;45.10
2751;DHT22;1383;48.362;10.908;2024-02-23T18:16:55;5.60;45.70
2751;DHT22;1383;48.362;10.908;2024-02-23T18:19:22;5.60;46.00
2751;DHT22;1383;48.362;10.908;2024-02-23T18:22:10;5.60;46.80
2751;DHT22;1383;48.362;10.908;2024-02-23T18:24:37;5.60;46.10
2751;DHT22;1383;48.362;10.908;2024-02-23T18:27:10;5.60;46.60
2751;DHT22;1383;48.362;10.908;2024-02-23T18:29:40;5.60;46.80
2751;DHT22;1383;48.362;10.908;2024-02-23T18:32:35;5.60;46.90
2751;DHT22;1383;48.362;10.908;2024-02-23T18:35:29;5.50;47.20
2751;DHT22;1383;48.362;10.908;2024-02-23T18:37:56;5.60;47.10
2751;DHT22;1383;48.362;10.908;2024-02-23T18:40:23;5.60;47.30
2751;DHT22;1383;48.362;10.908;2024-02-23T19:31:38;5.30;50.30
2751;DHT22;1383;48.362;10.908;2024-02-23T20:27:15;5.00;54.20
2751;DHT22;1383;48.362;10.908;2024-02-23T20:41:18;5.00;54.70
2751;DHT22;1383;48.362;10.908;2024-02-23T20:43:51;5.00;55.10
2751;DHT22;1383;48.362;10.908;2024-02-23T20:46:18;5.00;54.80
2751;DHT22;1383;48.362;10.908;2024-02-23T20:48:53;5.00;54.40
2751;DHT22;1383;48.362;10.908;2024-02-23T20:51:21;5.00;54.20
2751;DHT22;1383;48.362;10.908;2024-02-23T20:53:47;5.00;54.50
2751;DHT22;1383;48.362;10.908;2024-02-23T20:56:15;5.00;54.50
2751;DHT22;1383;48.362;10.908;2024-02-23T20:58:42;4.80;54.70
2751;DHT22;1383;48.362;10.908;2024-02-23T21:01:09;4.70;55.60
2751;DHT22;1383;48.362;10.908;2024-02-23T21:03:36;4.60;56.50
2751;DHT22;1383;48.362;10.908;2024-02-23T21:06:06;4.60;57.10
2751;DHT22;1383;48.362;10.908;2024-02-23T21:08:37;4.60;57.10
2751;DHT22;1383;48.362;10.908;2024-02-23T21:11:04;4.60;57.10
2751;DHT22;1383;48.362;10.908;2024-02-23T21:13:31;4.60;57.10
2751;DHT22;1383;48.362;10.908;2024-02-23T21:15:58;4.70;57.40
2751;DHT22;1383;48.362;10.908;2024-02-23T21:18:24;4.70;57.40
2751;DHT22;1383;48.362;10.908;2024-02-23T21:20:51;4.80;57.30
2751;DHT22;1383;48.362;10.908;2024-02-23T21:23:21;4.80;57.00
2751;DHT22;1383;48.362;10.908;2024-02-23T21:25:48;4.80;56.80
2751;DHT22;1383;48.362;10.908;2024-02-23T21:28:15;4.80;56.80
2751;DHT22;1383;48.362;10.908;2024-02-23T21:30:43;4.80;56.70
2751;DHT22;1383;48.362;10.908;2024-02-23T21:33:14;4.80;56.70
2751;DHT22;1383;48.362;10.908;2024-02-23T21:35:42;4.80;56.90
2751;DHT22;1383;48.362;10.908;2024-02-23T21:38:09;4.60;57.10
2751;DHT22;1383;48.362;10.908;2024-02-23T21:40:36;4.50;57.40
2751;DHT22;1383;48.362;10.908;2024-02-23T21:43:04;4.50;58.40
2751;DHT22;1383;48.362;10.908;2024-02-23T21:45:31;4.50;58.70
2751;DHT22;1383;48.362;10.908;2024-02-23T21:47:58;4.50;59.50
2751;DHT22;1383;48.362;10.908;2024-02-23T21:55:47;4.40;59.10
2751;DHT22;1383;48.362;10.908;2024-02-23T21:58:14;4.30;59.50
2751;DHT22;1383;48.362;10.908;2024-02-23T22:00:40;4.20;60.10
2751;DHT22;1383;48.362;10.908;2024-02-23T22:03:08;4.30;61.10
2751;DHT22;1383;48.362;10.908;2024-02-23T22:05:35;4.40;60.40
2751;DHT22;1383;48.362;10.908;2024-02-23T22:08:02;4.40;60.10
2751;DHT22;1383;48.362;10.908;2024-02-23T22:10:29;4.40;59.80
2751;DHT22;1383;48.362;10.908;2024-02-23T22:12:56;4.30;59.80
2751;DHT22;1383;48.362;10.908;2024-02-23T22:15:23;4.10;60.10
2751;DHT22;1383;48.362;10.908;2024-02-23T22:17:49;4.10;60.90
2751;DHT22;1383;48.362;10.908;2024-02-23T22:20:16;4.10;61.30
2751;DHT22;1383;48.362;10.908;2024-02-23T22:22:43;4.20;61.50
2751;DHT22;1383;48.362;10.908;2024-02-23T22:25:11;4.30;60.90
2751;DHT22;1383;48.362;10.908;2024-02-23T22:27:43;4.30;60.60
2751;DHT22;1383;48.362;10.908;2024-02-23T22:30:10;4.30;60.60
2751;DHT22;1383;48.362;10.908;2024-02-23T22:32:39;4.30;60.50
2751;DHT22;1383;48.362;10.908;2024-02-23T22:35:06;4.40;60.50
2751;DHT22;1383;48.362;10.908;2024-02-23T22:37:33;4.30;60.30
2751;DHT22;1383;48.362;10.908;2024-02-23T22:40:00;4.30;60.50
2751;DHT22;1383;48.362;10.908;2024-02-23T22:42:27;4.20;61.00
2751;DHT22;1383;48.362;10.908;2024-02-23T22:44:54;4.10;60.90
2751;DHT22;1383;48.362;10.908;2024-02-23T22:47:23;4.10;60.90
2751;DHT22;1383;48.362;10.908;2024-02-23T22:49:50;3.90;61.70
2751;DHT22;1383;48.362;10.908;2024-02-23T22:52:17;3.90;62.30
2751;DHT22;1383;48.362;10.908;2024-02-23T22:54:44;3.90;63.00
2751;DHT22;1383;48.362;10.908;2024-02-23T22:57:11;4.00;63.10
2751;DHT22;1383;48.362;10.908;2024-02-23T22:59:38;4.00;63.10
2751;DHT22;1383;48.362;10.908;2024-02-23T23:02:05;4.00;63.20
2751;DHT22;1383;48.362;10.908;2024-02-23T23:04:32;4.00;63.20
2751;DHT22;1383;48.362;10.908;2024-02-23T23:06:59;4.00;63.10
2751;DHT22;1383;48.362;10.908;2024-02-23T23:09:26;3.90;63.10
2751;DHT22;1383;48.362;10.908;2024-02-23T23:11:53;3.90;63.30
2751;DHT22;1383;48.362;10.908;2024-02-23T23:14:20;3.80;63.40
2751;DHT22;1383;48.362;10.908;2024-02-23T23:16:50;3.80;64.00
2751;DHT22;1383;48.362;10.908;2024-02-23T23:19:17;3.80;63.80
2751;DHT22;1383;48.362;10.908;2024-02-23T23:21:46;3.80;64.50
2751;DHT22;1383;48.362;10.908;2024-02-23T23:24:14;3.80;64.50
2751;DHT22;1383;48.362;10.908;2024-02-23T23:26:41;3.80;64.70
2751;DHT22;1383;48.362;10.908;2024-02-23T23:29:12;3.70;64.50
2751;DHT22;1383;48.362;10.908;2024-02-23T23:31:39;3.70;65.10
2751;DHT22;1383;48.362;10.908;2024-02-23T23:34:06;3.60;65.30
2751;DHT22;1383;48.362;10.908;2024-02-23T23:36:33;3.50;65.90
2751;DHT22;1383;48.362;10.908;2024-02-23T23:39:03;3.50;66.60
2751;DHT22;1383;48.362;10.908;2024-02-23T23:41:40;3.50;66.80
2751;DHT22;1383;48.362;10.908;2024-02-23T23:44:18;3.50;66.30
2751;DHT22;1383;48.362;10.908;2024-02-23T23:46:44;3.50;67.20
2751;DHT22;1383;48.362;10.908;2024-02-23T23:49:12;3.50;67.00
2751;DHT22;1383;48.362;10.908;2024-02-23T23:51:39;3.50;66.90
2751;DHT22;1383;48.362;10.908;2024-02-23T23:54:22;3.60;66.70
2751;DHT22;1383;48.362;10.908;2024-02-23T23:56:49;3.50;67.20
2751;DHT22;1383;48.362;10.908;2024-02-23T23:59:16;3.50;66.90
